sensor_id;sensor_type;location;lat;lon;timestamp;P1;durP1;ratioP1;P2;durP2;ratioP2
6207;SDS011;3137;51.550;7.060;2023-07-09T00:00:48;9.27;;;6.50;;
6207;SDS011;3137;51.550;7.060;2023-07-09T00:03:19;5.43;;;5.33;;
6207;SDS011;3137;51.550;7.060;2023-07-09T00:05:47;6.27;;;5.77;;
6207;SDS011;3137;51.550;7.060;2023-07-09T00:08:24;9.63;;;6.43;;
6207;SDS011;3137;51.550;7.060;2023-07-09T00:10:54;7.10;;;6.40;;
6207;SDS011;3137;51.550;7.060;2023-07-09T00:13:22;5.70;;;5.47;;
6207;SDS011;3137;51.550;7.060;2023-07-09T00:15:49;5.50;;;5.40;;
6207;SDS011;3137;51.550;7.060;2023-07-09T00:18:17;6.03;;;5.83;;
6207;SDS011;3137;51.550;7.060;2023-07-09T00:20:43;5.80;;;5.60;;
6207;SDS011;3137;51.550;7.060;2023-07-09T00:23:10;6.57;;;6.07;;
6207;SDS011;3137;51.550;7.060;2023-07-09T00:25:40;7.37;;;7.00;;
6207;SDS011;3137;51.550;7.060;2023-07-09T00:28:16;6.73;;;6.43;;
6207;SDS011;3137;51.550;7.060;2023-07-09T00:30:47;6.47;;;6.07;;
6207;SDS011;3137;51.550;7.060;2023-07-09T00:33:15;7.07;;;6.77;;
6207;SDS011;3137;51.550;7.060;2023-07-09T00:35:45;6.63;;;6.43;;
6207;SDS011;3137;51.550;7.060;2023-07-09T00:38:14;6.47;;;6.27;;
6207;SDS011;3137;51.550;7.060;2023-07-09T00:40:48;5.30;;;5.20;;
6207;SDS011;3137;51.550;7.060;2023-07-09T00:43:35;6.17;;;6.03;;
6207;SDS011;3137;51.550;7.060;2023-07-09T00:49:02;6.50;;;6.17;;
6207;SDS011;3137;51.550;7.060;2023-07-09T00:51:39;9.77;;;6.63;;
6207;SDS011;3137;51.550;7.060;2023-07-09T00:54:18;6.10;;;5.80;;
6207;SDS011;3137;51.550;7.060;2023-07-09T00:56:50;6.73;;;6.33;;
6207;SDS011;3137;51.550;7.060;2023-07-09T00:59:20;7.20;;;6.23;;
6207;SDS011;3137;51.550;7.060;2023-07-09T01:01:50;7.13;;;6.47;;
6207;SDS011;3137;51.550;7.060;2023-07-09T01:04:18;9.40;;;6.90;;
6207;SDS011;3137;51.550;7.060;2023-07-09T01:06:49;7.47;;;6.97;;
6207;SDS011;3137;51.550;7.060;2023-07-09T01:09:17;7.07;;;6.83;;
6207;SDS011;3137;51.550;7.060;2023-07-09T01:11:45;7.10;;;6.90;;
6207;SDS011;3137;51.550;7.060;2023-07-09T01:14:12;6.67;;;6.47;;
6207;SDS011;3137;51.550;7.060;2023-07-09T01:16:44;6.03;;;5.93;;
6207;SDS011;3137;51.550;7.060;2023-07-09T01:19:15;8.63;;;6.87;;
6207;SDS011;3137;51.550;7.060;2023-07-09T01:21:42;7.17;;;6.87;;
6207;SDS011;3137;51.550;7.060;2023-07-09T01:24:12;7.10;;;6.80;;
6207;SDS011;3137;51.550;7.060;2023-07-09T01:26:40;6.73;;;6.53;;
6207;SDS011;3137;51.550;7.060;2023-07-09T01:29:07;7.30;;;7.00;;
6207;SDS011;3137;51.550;7.060;2023-07-09T01:31:33;6.57;;;6.37;;
6207;SDS011;3137;51.550;7.060;2023-07-09T01:34:02;7.87;;;7.10;;
6207;SDS011;3137;51.550;7.060;2023-07-09T01:36:29;7.10;;;6.43;;
6207;SDS011;3137;51.550;7.060;2023-07-09T01:38:57;6.30;;;6.13;;
6207;SDS011;3137;51.550;7.060;2023-07-09T01:41:24;8.10;;;7.37;;
6207;SDS011;3137;51.550;7.060;2023-07-09T01:43:50;9.00;;;8.50;;
6207;SDS011;3137;51.550;7.060;2023-07-09T01:46:17;8.97;;;8.20;;
6207;SDS011;3137;51.550;7.060;2023-07-09T01:48:43;8.03;;;7.70;;
6207;SDS011;3137;51.550;7.060;2023-07-09T01:51:12;9.37;;;8.90;;
6207;SDS011;3137;51.550;7.060;2023-07-09T01:53:42;8.03;;;7.40;;
6207;SDS011;3137;51.550;7.060;2023-07-09T01:56:10;8.63;;;8.07;;
6207;SDS011;3137;51.550;7.060;2023-07-09T01:58:37;6.73;;;6.50;;
6207;SDS011;3137;51.550;7.060;2023-07-09T02:01:09;8.17;;;7.97;;
6207;SDS011;3137;51.550;7.060;2023-07-09T02:03:36;8.93;;;8.43;;
6207;SDS011;3137;51.550;7.060;2023-07-09T02:06:03;8.77;;;8.27;;
6207;SDS011;3137;51.550;7.060;2023-07-09T02:08:35;7.67;;;7.30;;
6207;SDS011;3137;51.550;7.060;2023-07-09T02:11:02;12.87;;;9.13;;
6207;SDS011;3137;51.550;7.060;2023-07-09T02:13:29;9.20;;;8.63;;
6207;SDS011;3137;51.550;7.060;2023-07-09T02:15:55;7.90;;;7.63;;
6207;SDS011;3137;51.550;7.060;2023-07-09T02:18:22;8.47;;;7.67;;
6207;SDS011;3137;51.550;7.060;2023-07-09T02:20:48;9.53;;;7.90;;
6207;SDS011;3137;51.550;7.060;2023-07-09T02:23:15;7.83;;;7.53;;
6207;SDS011;3137;51.550;7.060;2023-07-09T02:25:41;7.97;;;7.50;;
6207;SDS011;3137;51.550;7.060;2023-07-09T02:28:08;8.30;;;7.90;;
6207;SDS011;3137;51.550;7.060;2023-07-09T02:30:34;8.43;;;7.70;;
6207;SDS011;3137;51.550;7.060;2023-07-09T02:33:02;8.87;;;8.30;;
6207;SDS011;3137;51.550;7.060;2023-07-09T02:35:29;9.20;;;8.40;;
6207;SDS011;3137;51.550;7.060;2023-07-09T02:37:55;8.43;;;7.73;;
6207;SDS011;3137;51.550;7.060;2023-07-09T02:40:22;8.60;;;8.00;;
6207;SDS011;3137;51.550;7.060;2023-07-09T02:42:49;8.97;;;8.20;;
6207;SDS011;3137;51.550;7.060;2023-07-09T02:45:17;8.23;;;7.87;;
6207;SDS011;3137;51.550;7.060;2023-07-09T02:47:43;7.40;;;7.10;;
6207;SDS011;3137;51.550;7.060;2023-07-09T02:50:10;8.43;;;8.10;;
6207;SDS011;3137;51.550;7.060;2023-07-09T02:52:37;8.93;;;8.33;;
6207;SDS011;3137;51.550;7.060;2023-07-09T02:55:04;8.97;;;8.17;;
6207;SDS011;3137;51.550;7.060;2023-07-09T02:57:30;8.07;;;7.93;;
6207;SDS011;3137;51.550;7.060;2023-07-09T02:59:57;7.43;;;7.23;;
6207;SDS011;3137;51.550;7.060;2023-07-09T03:02:23;8.70;;;8.17;;
6207;SDS011;3137;51.550;7.060;2023-07-09T03:04:50;9.70;;;8.83;;
6207;SDS011;3137;51.550;7.060;2023-07-09T03:07:16;8.33;;;7.83;;
6207;SDS011;3137;51.550;7.060;2023-07-09T03:09:43;7.90;;;7.60;;
6207;SDS011;3137;51.550;7.060;2023-07-09T03:12:09;9.90;;;9.23;;
6207;SDS011;3137;51.550;7.060;2023-07-09T03:14:36;8.90;;;8.53;;
6207;SDS011;3137;51.550;7.060;2023-07-09T03:17:02;8.03;;;7.57;;
6207;SDS011;3137;51.550;7.060;2023-07-09T03:19:29;7.47;;;7.23;;
6207;SDS011;3137;51.550;7.060;2023-07-09T03:21:56;8.10;;;7.30;;
6207;SDS011;3137;51.550;7.060;2023-07-09T03:24:22;10.57;;;9.07;;
6207;SDS011;3137;51.550;7.060;2023-07-09T03:26:49;10.73;;;8.87;;
6207;SDS011;3137;51.550;7.060;2023-07-09T03:29:15;9.07;;;8.33;;
6207;SDS011;3137;51.550;7.060;2023-07-09T03:31:42;9.10;;;8.43;;
6207;SDS011;3137;51.550;7.060;2023-07-09T03:34:09;9.23;;;8.83;;
6207;SDS011;3137;51.550;7.060;2023-07-09T03:36:36;9.90;;;8.77;;
6207;SDS011;3137;51.550;7.060;2023-07-09T03:39:06;8.87;;;8.17;;
6207;SDS011;3137;51.550;7.060;2023-07-09T03:41:33;8.27;;;7.87;;
6207;SDS011;3137;51.550;7.060;2023-07-09T03:44:00;8.33;;;8.17;;
6207;SDS011;3137;51.550;7.060;2023-07-09T03:46:26;8.07;;;7.73;;
6207;SDS011;3137;51.550;7.060;2023-07-09T03:48:52;10.20;;;8.30;;
6207;SDS011;3137;51.550;7.060;2023-07-09T03:51:19;9.17;;;8.67;;
6207;SDS011;3137;51.550;7.060;2023-07-09T03:53:46;8.97;;;8.17;;
6207;SDS011;3137;51.550;7.060;2023-07-09T03:56:12;8.73;;;8.17;;
6207;SDS011;3137;51.550;7.060;2023-07-09T03:58:38;8.63;;;7.97;;
6207;SDS011;3137;51.550;7.060;2023-07-09T04:01:05;8.57;;;8.07;;
6207;SDS011;3137;51.550;7.060;2023-07-09T04:03:31;8.27;;;7.83;;
6207;SDS011;3137;51.550;7.060;2023-07-09T04:05:58;9.13;;;8.40;;
6207;SDS011;3137;51.550;7.060;2023-07-09T04:08:24;8.97;;;8.10;;
6207;SDS011;3137;51.550;7.060;2023-07-09T04:10:55;8.17;;;7.87;;
6207;SDS011;3137;51.550;7.060;2023-07-09T04:13:25;8.80;;;8.43;;
6207;SDS011;3137;51.550;7.060;2023-07-09T04:15:54;8.27;;;8.07;;
6207;SDS011;3137;51.550;7.060;2023-07-09T04:18:21;11.70;;;8.37;;
6207;SDS011;3137;51.550;7.060;2023-07-09T04:20:48;9.00;;;8.50;;
6207;SDS011;3137;51.550;7.060;2023-07-09T04:23:16;9.40;;;8.57;;
6207;SDS011;3137;51.550;7.060;2023-07-09T04:25:43;8.10;;;7.30;;
6207;SDS011;3137;51.550;7.060;2023-07-09T04:28:09;8.30;;;7.83;;
6207;SDS011;3137;51.550;7.060;2023-07-09T04:30:36;9.10;;;8.50;;
6207;SDS011;3137;51.550;7.060;2023-07-09T04:33:02;8.80;;;8.30;;
6207;SDS011;3137;51.550;7.060;2023-07-09T04:35:29;8.17;;;7.87;;
6207;SDS011;3137;51.550;7.060;2023-07-09T04:37:55;10.03;;;8.57;;
6207;SDS011;3137;51.550;7.060;2023-07-09T04:40:22;9.67;;;8.53;;
6207;SDS011;3137;51.550;7.060;2023-07-09T04:42:48;7.80;;;7.37;;
6207;SDS011;3137;51.550;7.060;2023-07-09T04:45:15;8.57;;;8.20;;
6207;SDS011;3137;51.550;7.060;2023-07-09T04:47:41;8.93;;;8.07;;
6207;SDS011;3137;51.550;7.060;2023-07-09T04:50:08;9.03;;;8.33;;
6207;SDS011;3137;51.550;7.060;2023-07-09T04:52:35;16.47;;;9.00;;
6207;SDS011;3137;51.550;7.060;2023-07-09T04:55:01;10.50;;;9.70;;
6207;SDS011;3137;51.550;7.060;2023-07-09T04:57:28;9.23;;;8.17;;
6207;SDS011;3137;51.550;7.060;2023-07-09T04:59:55;9.27;;;8.47;;
6207;SDS011;3137;51.550;7.060;2023-07-09T05:02:22;17.20;;;9.10;;
6207;SDS011;3137;51.550;7.060;2023-07-09T05:04:49;10.03;;;9.20;;
6207;SDS011;3137;51.550;7.060;2023-07-09T05:07:15;10.17;;;9.17;;
6207;SDS011;3137;51.550;7.060;2023-07-09T05:09:42;12.07;;;8.60;;
6207;SDS011;3137;51.550;7.060;2023-07-09T05:12:08;14.43;;;8.87;;
6207;SDS011;3137;51.550;7.060;2023-07-09T05:14:35;8.83;;;8.43;;
6207;SDS011;3137;51.550;7.060;2023-07-09T05:17:02;9.23;;;8.57;;
6207;SDS011;3137;51.550;7.060;2023-07-09T05:19:28;9.77;;;9.00;;
6207;SDS011;3137;51.550;7.060;2023-07-09T05:21:55;8.30;;;7.70;;
6207;SDS011;3137;51.550;7.060;2023-07-09T05:24:21;8.80;;;8.50;;
6207;SDS011;3137;51.550;7.060;2023-07-09T05:26:49;9.47;;;8.97;;
6207;SDS011;3137;51.550;7.060;2023-07-09T05:29:16;8.93;;;8.47;;
6207;SDS011;3137;51.550;7.060;2023-07-09T05:31:42;9.73;;;9.00;;
6207;SDS011;3137;51.550;7.060;2023-07-09T05:34:09;10.33;;;9.00;;
6207;SDS011;3137;51.550;7.060;2023-07-09T05:36:35;10.30;;;8.47;;
6207;SDS011;3137;51.550;7.060;2023-07-09T05:39:02;8.47;;;7.90;;
6207;SDS011;3137;51.550;7.060;2023-07-09T05:41:28;9.47;;;8.87;;
6207;SDS011;3137;51.550;7.060;2023-07-09T05:43:55;10.33;;;9.23;;
6207;SDS011;3137;51.550;7.060;2023-07-09T05:46:21;10.20;;;9.50;;
6207;SDS011;3137;51.550;7.060;2023-07-09T05:48:49;9.87;;;9.27;;
6207;SDS011;3137;51.550;7.060;2023-07-09T05:51:15;10.27;;;9.30;;
6207;SDS011;3137;51.550;7.060;2023-07-09T05:53:42;10.83;;;9.93;;
6207;SDS011;3137;51.550;7.060;2023-07-09T05:56:08;10.97;;;10.10;;
6207;SDS011;3137;51.550;7.060;2023-07-09T05:58:36;20.53;;;10.90;;
6207;SDS011;3137;51.550;7.060;2023-07-09T06:01:03;10.97;;;9.87;;
6207;SDS011;3137;51.550;7.060;2023-07-09T06:03:29;11.20;;;10.47;;
6207;SDS011;3137;51.550;7.060;2023-07-09T06:05:56;10.83;;;10.00;;
6207;SDS011;3137;51.550;7.060;2023-07-09T06:08:23;10.40;;;9.53;;
6207;SDS011;3137;51.550;7.060;2023-07-09T06:10:54;11.13;;;10.13;;
6207;SDS011;3137;51.550;7.060;2023-07-09T06:13:22;11.03;;;10.33;;
6207;SDS011;3137;51.550;7.060;2023-07-09T06:15:49;10.00;;;9.50;;
6207;SDS011;3137;51.550;7.060;2023-07-09T06:18:17;10.30;;;9.73;;
6207;SDS011;3137;51.550;7.060;2023-07-09T06:20:47;10.23;;;9.40;;
6207;SDS011;3137;51.550;7.060;2023-07-09T06:23:18;10.63;;;9.50;;
6207;SDS011;3137;51.550;7.060;2023-07-09T06:25:45;9.45;;;8.55;;
6207;SDS011;3137;51.550;7.060;2023-07-09T06:28:17;8.10;;;7.77;;
6207;SDS011;3137;51.550;7.060;2023-07-09T06:30:46;7.70;;;7.18;;
6207;SDS011;3137;51.550;7.060;2023-07-09T06:33:14;8.50;;;7.75;;
6207;SDS011;3137;51.550;7.060;2023-07-09T06:35:48;9.15;;;8.38;;
6207;SDS011;3137;51.550;7.060;2023-07-09T06:38:19;11.50;;;7.90;;
6207;SDS011;3137;51.550;7.060;2023-07-09T06:40:46;8.00;;;7.55;;
6207;SDS011;3137;51.550;7.060;2023-07-09T06:43:13;7.97;;;7.55;;
6207;SDS011;3137;51.550;7.060;2023-07-09T06:45:51;7.75;;;7.20;;
6207;SDS011;3137;51.550;7.060;2023-07-09T06:48:23;10.73;;;8.43;;
6207;SDS011;3137;51.550;7.060;2023-07-09T06:50:52;7.80;;;7.55;;
6207;SDS011;3137;51.550;7.060;2023-07-09T06:53:19;8.00;;;7.45;;
6207;SDS011;3137;51.550;7.060;2023-07-09T06:55:46;9.63;;;7.57;;
6207;SDS011;3137;51.550;7.060;2023-07-09T06:58:15;9.85;;;8.82;;
6207;SDS011;3137;51.550;7.060;2023-07-09T07:00:45;8.00;;;7.38;;
6207;SDS011;3137;51.550;7.060;2023-07-09T07:03:12;7.70;;;7.35;;
6207;SDS011;3137;51.550;7.060;2023-07-09T07:05:42;7.97;;;7.28;;
6207;SDS011;3137;51.550;7.060;2023-07-09T07:08:13;8.20;;;7.47;;
6207;SDS011;3137;51.550;7.060;2023-07-09T07:10:41;15.05;;;7.00;;
6207;SDS011;3137;51.550;7.060;2023-07-09T07:13:09;7.35;;;6.78;;
6207;SDS011;3137;51.550;7.060;2023-07-09T07:15:37;7.50;;;7.10;;
6207;SDS011;3137;51.550;7.060;2023-07-09T07:18:04;10.27;;;7.65;;
6207;SDS011;3137;51.550;7.060;2023-07-09T07:20:31;6.82;;;6.53;;
6207;SDS011;3137;51.550;7.060;2023-07-09T07:22:58;6.70;;;6.40;;
6207;SDS011;3137;51.550;7.060;2023-07-09T07:25:25;12.52;;;7.18;;
6207;SDS011;3137;51.550;7.060;2023-07-09T07:27:52;7.32;;;6.70;;
6207;SDS011;3137;51.550;7.060;2023-07-09T07:30:19;7.15;;;6.63;;
6207;SDS011;3137;51.550;7.060;2023-07-09T07:32:48;6.95;;;6.50;;
6207;SDS011;3137;51.550;7.060;2023-07-09T07:35:15;7.28;;;6.90;;
6207;SDS011;3137;51.550;7.060;2023-07-09T07:37:43;6.82;;;6.43;;
6207;SDS011;3137;51.550;7.060;2023-07-09T07:40:10;8.35;;;7.55;;
6207;SDS011;3137;51.550;7.060;2023-07-09T07:42:36;14.52;;;7.25;;
6207;SDS011;3137;51.550;7.060;2023-07-09T07:45:03;7.82;;;7.15;;
6207;SDS011;3137;51.550;7.060;2023-07-09T07:47:30;6.28;;;6.05;;
6207;SDS011;3137;51.550;7.060;2023-07-09T07:49:57;7.15;;;6.50;;
6207;SDS011;3137;51.550;7.060;2023-07-09T07:52:23;6.70;;;6.40;;
6207;SDS011;3137;51.550;7.060;2023-07-09T07:54:51;7.80;;;6.93;;
6207;SDS011;3137;51.550;7.060;2023-07-09T07:57:18;8.88;;;6.55;;
6207;SDS011;3137;51.550;7.060;2023-07-09T07:59:45;7.03;;;6.68;;
6207;SDS011;3137;51.550;7.060;2023-07-09T08:02:13;7.22;;;6.43;;
6207;SDS011;3137;51.550;7.060;2023-07-09T08:04:40;6.57;;;6.45;;
6207;SDS011;3137;51.550;7.060;2023-07-09T08:07:08;9.10;;;7.30;;
6207;SDS011;3137;51.550;7.060;2023-07-09T08:09:36;8.23;;;6.95;;
6207;SDS011;3137;51.550;7.060;2023-07-09T08:12:03;7.97;;;7.25;;
6207;SDS011;3137;51.550;7.060;2023-07-09T08:14:39;6.82;;;6.55;;
6207;SDS011;3137;51.550;7.060;2023-07-09T08:17:06;7.75;;;7.45;;
6207;SDS011;3137;51.550;7.060;2023-07-09T08:19:44;8.00;;;7.55;;
6207;SDS011;3137;51.550;7.060;2023-07-09T08:22:12;11.52;;;8.23;;
6207;SDS011;3137;51.550;7.060;2023-07-09T08:24:39;10.32;;;8.18;;
6207;SDS011;3137;51.550;7.060;2023-07-09T08:27:08;8.15;;;7.63;;
6207;SDS011;3137;51.550;7.060;2023-07-09T08:29:35;7.63;;;7.20;;
6207;SDS011;3137;51.550;7.060;2023-07-09T08:32:02;8.07;;;7.32;;
6207;SDS011;3137;51.550;7.060;2023-07-09T08:34:30;8.38;;;8.00;;
6207;SDS011;3137;51.550;7.060;2023-07-09T08:36:56;7.72;;;7.05;;
6207;SDS011;3137;51.550;7.060;2023-07-09T08:39:22;7.30;;;6.78;;
6207;SDS011;3137;51.550;7.060;2023-07-09T08:42:00;7.43;;;6.78;;
6207;SDS011;3137;51.550;7.060;2023-07-09T08:50:19;9.13;;;6.45;;
6207;SDS011;3137;51.550;7.060;2023-07-09T08:52:49;7.10;;;6.57;;
6207;SDS011;3137;51.550;7.060;2023-07-09T08:55:19;7.30;;;7.00;;
6207;SDS011;3137;51.550;7.060;2023-07-09T08:57:47;6.95;;;6.40;;
6207;SDS011;3137;51.550;7.060;2023-07-09T09:00:20;6.85;;;6.50;;
6207;SDS011;3137;51.550;7.060;2023-07-09T09:02:56;7.35;;;6.65;;
6207;SDS011;3137;51.550;7.060;2023-07-09T09:05:25;6.85;;;6.45;;
6207;SDS011;3137;51.550;7.060;2023-07-09T09:08:08;6.55;;;6.28;;
6207;SDS011;3137;51.550;7.060;2023-07-09T09:10:47;8.75;;;6.03;;
6207;SDS011;3137;51.550;7.060;2023-07-09T09:13:20;6.47;;;6.05;;
6207;SDS011;3137;51.550;7.060;2023-07-09T09:15:51;6.72;;;6.43;;
6207;SDS011;3137;51.550;7.060;2023-07-09T09:18:22;6.60;;;6.05;;
6207;SDS011;3137;51.550;7.060;2023-07-09T09:20:56;6.30;;;5.88;;
6207;SDS011;3137;51.550;7.060;2023-07-09T09:23:25;6.28;;;5.97;;
6207;SDS011;3137;51.550;7.060;2023-07-09T09:26:02;6.35;;;5.78;;
6207;SDS011;3137;51.550;7.060;2023-07-09T09:28:37;6.05;;;5.85;;
6207;SDS011;3137;51.550;7.060;2023-07-09T09:31:04;11.15;;;5.88;;
6207;SDS011;3137;51.550;7.060;2023-07-09T09:33:37;5.78;;;5.57;;
6207;SDS011;3137;51.550;7.060;2023-07-09T09:36:11;5.65;;;5.00;;
6207;SDS011;3137;51.550;7.060;2023-07-09T09:38:42;6.72;;;5.70;;
6207;SDS011;3137;51.550;7.060;2023-07-09T09:41:12;5.88;;;5.68;;
6207;SDS011;3137;51.550;7.060;2023-07-09T09:43:41;9.65;;;5.40;;
6207;SDS011;3137;51.550;7.060;2023-07-09T09:46:12;8.70;;;4.95;;
6207;SDS011;3137;51.550;7.060;2023-07-09T09:48:44;5.85;;;5.63;;
6207;SDS011;3137;51.550;7.060;2023-07-09T09:51:12;6.20;;;5.72;;
6207;SDS011;3137;51.550;7.060;2023-07-09T09:53:45;6.28;;;4.75;;
6207;SDS011;3137;51.550;7.060;2023-07-09T09:56:19;5.07;;;4.70;;
6207;SDS011;3137;51.550;7.060;2023-07-09T09:58:54;5.63;;;4.65;;
6207;SDS011;3137;51.550;7.060;2023-07-09T10:01:26;7.07;;;5.00;;
6207;SDS011;3137;51.550;7.060;2023-07-09T10:03:56;4.65;;;4.55;;
6207;SDS011;3137;51.550;7.060;2023-07-09T10:06:28;5.25;;;5.00;;
6207;SDS011;3137;51.550;7.060;2023-07-09T10:18:06;4.75;;;4.28;;
6207;SDS011;3137;51.550;7.060;2023-07-09T10:20:45;4.68;;;4.18;;
6207;SDS011;3137;51.550;7.060;2023-07-09T10:26:09;3.95;;;3.85;;
6207;SDS011;3137;51.550;7.060;2023-07-09T10:31:47;4.97;;;4.65;;
6207;SDS011;3137;51.550;7.060;2023-07-09T10:34:34;5.45;;;4.93;;
6207;SDS011;3137;51.550;7.060;2023-07-09T10:40:29;4.90;;;4.60;;
6207;SDS011;3137;51.550;7.060;2023-07-09T10:43:00;7.20;;;4.70;;
6207;SDS011;3137;51.550;7.060;2023-07-09T10:45:29;4.82;;;4.40;;
6207;SDS011;3137;51.550;7.060;2023-07-09T10:47:59;5.47;;;5.05;;
6207;SDS011;3137;51.550;7.060;2023-07-09T10:50:33;5.10;;;4.68;;
6207;SDS011;3137;51.550;7.060;2023-07-09T10:53:08;4.32;;;4.03;;
6207;SDS011;3137;51.550;7.060;2023-07-09T10:55:53;4.75;;;4.43;;
6207;SDS011;3137;51.550;7.060;2023-07-09T10:58:28;4.38;;;3.95;;
6207;SDS011;3137;51.550;7.060;2023-07-09T11:00:56;5.00;;;4.40;;
6207;SDS011;3137;51.550;7.060;2023-07-09T11:03:29;4.60;;;4.30;;
6207;SDS011;3137;51.550;7.060;2023-07-09T11:06:05;4.05;;;3.85;;
6207;SDS011;3137;51.550;7.060;2023-07-09T11:08:40;4.72;;;4.53;;
6207;SDS011;3137;51.550;7.060;2023-07-09T11:11:13;4.78;;;4.57;;
6207;SDS011;3137;51.550;7.060;2023-07-09T11:13:54;4.45;;;4.20;;
6207;SDS011;3137;51.550;7.060;2023-07-09T11:16:31;4.15;;;4.00;;
6207;SDS011;3137;51.550;7.060;2023-07-09T11:19:03;4.28;;;3.85;;
6207;SDS011;3137;51.550;7.060;2023-07-09T11:21:32;3.30;;;3.00;;
6207;SDS011;3137;51.550;7.060;2023-07-09T11:24:01;5.53;;;3.10;;
6207;SDS011;3137;51.550;7.060;2023-07-09T11:26:29;5.43;;;3.60;;
6207;SDS011;3137;51.550;7.060;2023-07-09T11:31:39;3.85;;;3.45;;
6207;SDS011;3137;51.550;7.060;2023-07-09T11:39:39;3.88;;;3.67;;
6207;SDS011;3137;51.550;7.060;2023-07-09T11:42:22;3.13;;;3.13;;
6207;SDS011;3137;51.550;7.060;2023-07-09T11:45:19;6.10;;;3.55;;
6207;SDS011;3137;51.550;7.060;2023-07-09T11:50:39;3.10;;;2.80;;
6207;SDS011;3137;51.550;7.060;2023-07-09T11:55:40;3.88;;;3.60;;
6207;SDS011;3137;51.550;7.060;2023-07-09T11:58:09;3.38;;;3.13;;
6207;SDS011;3137;51.550;7.060;2023-07-09T12:00:39;3.33;;;3.22;;
6207;SDS011;3137;51.550;7.060;2023-07-09T12:03:14;3.70;;;3.47;;
6207;SDS011;3137;51.550;7.060;2023-07-09T12:05:48;6.80;;;2.95;;
6207;SDS011;3137;51.550;7.060;2023-07-09T12:08:36;3.08;;;3.08;;
6207;SDS011;3137;51.550;7.060;2023-07-09T12:11:05;2.70;;;2.70;;
6207;SDS011;3137;51.550;7.060;2023-07-09T12:13:38;7.07;;;3.03;;
6207;SDS011;3137;51.550;7.060;2023-07-09T12:16:21;3.30;;;3.20;;
6207;SDS011;3137;51.550;7.060;2023-07-09T12:18:56;2.80;;;2.80;;
6207;SDS011;3137;51.550;7.060;2023-07-09T12:21:23;2.83;;;2.83;;
6207;SDS011;3137;51.550;7.060;2023-07-09T12:23:52;6.80;;;3.40;;
6207;SDS011;3137;51.550;7.060;2023-07-09T12:26:20;7.82;;;4.05;;
6207;SDS011;3137;51.550;7.060;2023-07-09T12:28:54;2.88;;;2.78;;
6207;SDS011;3137;51.550;7.060;2023-07-09T12:31:27;3.65;;;3.05;;
6207;SDS011;3137;51.550;7.060;2023-07-09T12:33:56;3.35;;;3.25;;
6207;SDS011;3137;51.550;7.060;2023-07-09T12:36:25;3.45;;;3.38;;
6207;SDS011;3137;51.550;7.060;2023-07-09T12:38:55;3.80;;;3.50;;
6207;SDS011;3137;51.550;7.060;2023-07-09T12:41:28;3.65;;;3.45;;
6207;SDS011;3137;51.550;7.060;2023-07-09T12:43:55;3.67;;;3.58;;
6207;SDS011;3137;51.550;7.060;2023-07-09T12:46:22;4.30;;;3.95;;
6207;SDS011;3137;51.550;7.060;2023-07-09T12:48:50;3.63;;;3.42;;
6207;SDS011;3137;51.550;7.060;2023-07-09T12:51:20;5.13;;;3.47;;
6207;SDS011;3137;51.550;7.060;2023-07-09T12:56:39;4.32;;;3.78;;
6207;SDS011;3137;51.550;7.060;2023-07-09T12:59:16;8.60;;;3.42;;
6207;SDS011;3137;51.550;7.060;2023-07-09T13:01:49;3.83;;;3.50;;
6207;SDS011;3137;51.550;7.060;2023-07-09T13:04:17;4.18;;;2.97;;
6207;SDS011;3137;51.550;7.060;2023-07-09T13:06:44;3.70;;;3.42;;
6207;SDS011;3137;51.550;7.060;2023-07-09T13:09:13;10.25;;;2.92;;
6207;SDS011;3137;51.550;7.060;2023-07-09T13:11:45;3.15;;;2.97;;
6207;SDS011;3137;51.550;7.060;2023-07-09T13:14:16;2.95;;;2.85;;
6207;SDS011;3137;51.550;7.060;2023-07-09T13:16:45;5.88;;;3.47;;
6207;SDS011;3137;51.550;7.060;2023-07-09T13:19:12;10.48;;;4.38;;
6207;SDS011;3137;51.550;7.060;2023-07-09T13:21:38;3.22;;;3.13;;
6207;SDS011;3137;51.550;7.060;2023-07-09T13:24:16;3.88;;;3.67;;
6207;SDS011;3137;51.550;7.060;2023-07-09T13:26:47;3.50;;;3.35;;
6207;SDS011;3137;51.550;7.060;2023-07-09T13:29:14;3.63;;;3.17;;
6207;SDS011;3137;51.550;7.060;2023-07-09T13:31:43;4.18;;;3.50;;
6207;SDS011;3137;51.550;7.060;2023-07-09T13:34:18;6.07;;;3.10;;
6207;SDS011;3137;51.550;7.060;2023-07-09T13:36:49;3.45;;;3.28;;
6207;SDS011;3137;51.550;7.060;2023-07-09T13:39:18;3.20;;;3.10;;
6207;SDS011;3137;51.550;7.060;2023-07-09T13:41:46;9.05;;;3.80;;
6207;SDS011;3137;51.550;7.060;2023-07-09T13:44:18;3.00;;;2.90;;
6207;SDS011;3137;51.550;7.060;2023-07-09T13:46:55;6.95;;;3.22;;
6207;SDS011;3137;51.550;7.060;2023-07-09T13:49:22;3.17;;;3.10;;
6207;SDS011;3137;51.550;7.060;2023-07-09T13:51:54;3.50;;;3.50;;
6207;SDS011;3137;51.550;7.060;2023-07-09T13:54:26;3.25;;;3.25;;
6207;SDS011;3137;51.550;7.060;2023-07-09T13:57:02;4.22;;;3.47;;
6207;SDS011;3137;51.550;7.060;2023-07-09T13:59:29;3.70;;;3.70;;
6207;SDS011;3137;51.550;7.060;2023-07-09T14:01:57;4.20;;;3.10;;
6207;SDS011;3137;51.550;7.060;2023-07-09T14:04:26;3.50;;;3.35;;
6207;SDS011;3137;51.550;7.060;2023-07-09T14:06:54;3.78;;;3.63;;
6207;SDS011;3137;51.550;7.060;2023-07-09T14:09:21;4.00;;;3.35;;
6207;SDS011;3137;51.550;7.060;2023-07-09T14:11:49;8.13;;;4.22;;
6207;SDS011;3137;51.550;7.060;2023-07-09T14:14:19;5.35;;;3.67;;
6207;SDS011;3137;51.550;7.060;2023-07-09T14:16:50;4.93;;;4.38;;
6207;SDS011;3137;51.550;7.060;2023-07-09T14:19:19;4.07;;;3.85;;
6207;SDS011;3137;51.550;7.060;2023-07-09T14:21:48;9.95;;;3.53;;
6207;SDS011;3137;51.550;7.060;2023-07-09T14:24:19;4.00;;;3.90;;
6207;SDS011;3137;51.550;7.060;2023-07-09T14:26:50;5.85;;;4.55;;
6207;SDS011;3137;51.550;7.060;2023-07-09T14:29:17;5.22;;;4.80;;
6207;SDS011;3137;51.550;7.060;2023-07-09T14:31:45;5.10;;;4.70;;
6207;SDS011;3137;51.550;7.060;2023-07-09T14:36:47;5.97;;;5.57;;
6207;SDS011;3137;51.550;7.060;2023-07-09T14:39:18;13.25;;;5.72;;
6207;SDS011;3137;51.550;7.060;2023-07-09T14:41:45;11.00;;;6.07;;
6207;SDS011;3137;51.550;7.060;2023-07-09T14:46:52;7.45;;;6.78;;
6207;SDS011;3137;51.550;7.060;2023-07-09T14:49:20;13.10;;;7.20;;
6207;SDS011;3137;51.550;7.060;2023-07-09T14:51:47;13.70;;;8.85;;
6207;SDS011;3137;51.550;7.060;2023-07-09T14:54:19;13.60;;;9.67;;
6207;SDS011;3137;51.550;7.060;2023-07-09T14:56:53;10.37;;;6.50;;
6207;SDS011;3137;51.550;7.060;2023-07-09T14:59:21;5.07;;;4.67;;
6207;SDS011;3137;51.550;7.060;2023-07-09T15:01:47;10.27;;;6.90;;
6207;SDS011;3137;51.550;7.060;2023-07-09T15:04:22;9.77;;;5.00;;
6207;SDS011;3137;51.550;7.060;2023-07-09T15:06:54;3.77;;;3.47;;
6207;SDS011;3137;51.550;7.060;2023-07-09T15:09:23;5.07;;;4.13;;
6207;SDS011;3137;51.550;7.060;2023-07-09T15:11:51;6.10;;;5.00;;
6207;SDS011;3137;51.550;7.060;2023-07-09T15:14:19;3.83;;;3.80;;
6207;SDS011;3137;51.550;7.060;2023-07-09T15:16:47;6.00;;;3.50;;
6207;SDS011;3137;51.550;7.060;2023-07-09T15:19:17;6.57;;;4.60;;
6207;SDS011;3137;51.550;7.060;2023-07-09T15:21:49;9.30;;;6.07;;
6207;SDS011;3137;51.550;7.060;2023-07-09T15:24:32;5.73;;;5.70;;
6207;SDS011;3137;51.550;7.060;2023-07-09T15:27:00;7.17;;;6.97;;
6207;SDS011;3137;51.550;7.060;2023-07-09T15:29:28;7.87;;;7.20;;
6207;SDS011;3137;51.550;7.060;2023-07-09T15:31:55;8.20;;;7.40;;
6207;SDS011;3137;51.550;7.060;2023-07-09T15:34:21;8.50;;;7.90;;
6207;SDS011;3137;51.550;7.060;2023-07-09T15:36:49;9.33;;;8.53;;
6207;SDS011;3137;51.550;7.060;2023-07-09T15:39:17;10.97;;;10.07;;
6207;SDS011;3137;51.550;7.060;2023-07-09T15:41:44;10.03;;;9.30;;
6207;SDS011;3137;51.550;7.060;2023-07-09T15:44:12;10.20;;;9.20;;
6207;SDS011;3137;51.550;7.060;2023-07-09T15:46:39;10.53;;;9.37;;
6207;SDS011;3137;51.550;7.060;2023-07-09T15:49:10;9.73;;;8.83;;
6207;SDS011;3137;51.550;7.060;2023-07-09T15:51:38;12.97;;;10.43;;
6207;SDS011;3137;51.550;7.060;2023-07-09T15:54:21;11.83;;;8.87;;
6207;SDS011;3137;51.550;7.060;2023-07-09T15:56:50;12.97;;;9.83;;
6207;SDS011;3137;51.550;7.060;2023-07-09T15:59:52;9.57;;;8.87;;
6207;SDS011;3137;51.550;7.060;2023-07-09T16:02:12;12.63;;;8.73;;
6207;SDS011;3137;51.550;7.060;2023-07-09T16:04:43;7.87;;;7.40;;
6207;SDS011;3137;51.550;7.060;2023-07-09T16:07:10;7.03;;;6.73;;
6207;SDS011;3137;51.550;7.060;2023-07-09T16:09:37;6.37;;;6.13;;
6207;SDS011;3137;51.550;7.060;2023-07-09T16:12:07;5.93;;;5.73;;
6207;SDS011;3137;51.550;7.060;2023-07-09T16:14:39;5.33;;;5.13;;